createdAt,value
2023-05-24T00:00:46.759Z,12.70
2023-05-24T00:03:16.352Z,12.70
2023-05-24T00:05:46.850Z,12.70
2023-05-24T00:08:16.046Z,12.70
2023-05-24T00:10:44.470Z,12.60
2023-05-24T00:13:12.775Z,12.50
2023-05-24T00:15:40.975Z,12.40
2023-05-24T00:18:16.923Z,12.30
2023-05-24T00:20:50.223Z,12.30
2023-05-24T00:23:18.323Z,12.30
2023-05-24T00:25:46.357Z,12.20
2023-05-24T00:28:14.426Z,12.20
2023-05-24T00:30:42.607Z,12.20
2023-05-24T00:33:10.936Z,12.20
2023-05-24T00:35:38.996Z,12.20
2023-05-24T00:38:08.364Z,12.10
2023-05-24T00:40:36.376Z,12.10
2023-05-24T00:43:04.394Z,12.10
2023-05-24T00:45:33.760Z,12.10
2023-05-24T00:48:02.426Z,12.00
2023-05-24T00:50:30.590Z,12.00
2023-05-24T00:53:01.902Z,11.90
2023-05-24T00:55:31.613Z,11.80
2023-05-24T00:57:59.692Z,11.80
2023-05-24T01:00:28.568Z,11.80
2023-05-24T01:02:57.136Z,11.80
2023-05-24T01:05:25.328Z,11.80
2023-05-24T01:08:03.927Z,11.80
2023-05-24T01:10:44.945Z,11.80
2023-05-24T01:13:21.878Z,11.80
2023-05-24T01:16:00.001Z,11.90
2023-05-24T01:18:32.481Z,11.80
2023-05-24T01:21:12.107Z,11.90
2023-05-24T01:23:48.728Z,11.80
2023-05-24T01:26:30.160Z,11.80
2023-05-24T01:29:03.572Z,11.80
2023-05-24T01:31:31.860Z,11.80
2023-05-24T01:33:59.876Z,11.80
2023-05-24T01:36:27.845Z,11.70
2023-05-24T01:38:55.905Z,11.70
2023-05-24T01:41:35.866Z,11.70
2023-05-24T01:44:14.575Z,11.70
2023-05-24T01:46:45.245Z,11.70
2023-05-24T01:49:22.089Z,11.70
2023-05-24T01:51:52.546Z,11.70
2023-05-24T01:54:24.468Z,11.60
2023-05-24T01:56:55.441Z,11.60
2023-05-24T01:59:27.082Z,11.60
2023-05-24T02:01:55.827Z,11.60
2023-05-24T02:04:24.683Z,11.70
2023-05-24T02:06:52.725Z,11.80
2023-05-24T02:09:20.901Z,11.70
2023-05-24T02:11:48.941Z,11.80
2023-05-24T02:14:17.321Z,11.80
2023-05-24T02:16:46.922Z,11.70
2023-05-24T02:19:15.471Z,11.60
2023-05-24T02:21:43.892Z,11.50
2023-05-24T02:24:12.571Z,11.40
2023-05-24T02:26:40.818Z,11.40
2023-05-24T02:29:08.850Z,11.40
2023-05-24T02:31:37.101Z,11.30
2023-05-24T02:34:06.612Z,11.30
2023-05-24T02:36:36.320Z,11.20
2023-05-24T02:39:05.057Z,11.20
2023-05-24T02:41:33.084Z,11.20
2023-05-24T02:44:01.157Z,11.10
2023-05-24T02:46:29.207Z,11.10
2023-05-24T02:48:59.445Z,11.10
2023-05-24T02:51:28.783Z,11.10
2023-05-24T02:53:56.828Z,11.10
2023-05-24T02:56:26.659Z,11.00
2023-05-24T02:58:55.701Z,11.00
2023-05-24T03:01:24.117Z,11.00
2023-05-24T03:03:52.220Z,11.00
2023-05-24T03:06:20.773Z,11.00
2023-05-24T03:08:51.131Z,11.00
2023-05-24T03:11:22.174Z,11.00
2023-05-24T03:13:50.561Z,10.90
2023-05-24T03:16:19.727Z,10.80
2023-05-24T03:18:50.589Z,10.90
2023-05-24T03:21:20.831Z,11.00
2023-05-24T03:23:50.713Z,10.90
2023-05-24T03:26:19.329Z,10.90
2023-05-24T03:28:47.677Z,10.90
2023-05-24T03:31:16.716Z,10.90
2023-05-24T03:33:45.022Z,10.80
2023-05-24T03:36:13.049Z,10.80
2023-05-24T03:38:41.075Z,10.80
2023-05-24T03:41:10.486Z,10.80
2023-05-24T03:43:38.499Z,10.70
2023-05-24T03:46:06.723Z,10.70
2023-05-24T03:48:34.730Z,10.70
2023-05-24T03:51:02.854Z,10.60
2023-05-24T03:53:32.280Z,10.60
2023-05-24T03:56:00.292Z,10.50
2023-05-24T03:58:29.665Z,10.50
2023-05-24T04:00:57.722Z,10.60
2023-05-24T04:03:26.455Z,10.60
2023-05-24T04:05:55.018Z,10.60
2023-05-24T04:08:23.041Z,10.60
2023-05-24T04:10:51.226Z,10.60
2023-05-24T04:13:19.236Z,10.60
2023-05-24T04:15:48.585Z,10.60
2023-05-24T04:18:16.788Z,10.60
2023-05-24T04:20:45.113Z,10.60
2023-05-24T04:23:13.395Z,10.70
2023-05-24T04:25:42.164Z,10.60
2023-05-24T04:28:10.232Z,10.60
2023-05-24T04:30:38.856Z,10.70
2023-05-24T04:33:09.354Z,10.70
2023-05-24T04:35:38.155Z,10.70
2023-05-24T04:38:06.211Z,10.70
2023-05-24T04:40:34.299Z,10.70
2023-05-24T04:43:02.816Z,10.70
2023-05-24T04:45:32.847Z,10.70
2023-05-24T04:48:00.917Z,10.80
2023-05-24T04:50:35.342Z,10.90
2023-05-24T04:53:03.317Z,11.00
2023-05-24T04:55:31.302Z,11.00
2023-05-24T04:57:59.314Z,11.00
2023-05-24T05:00:27.410Z,11.00
2023-05-24T05:02:56.186Z,11.00
2023-05-24T05:05:24.354Z,11.00
2023-05-24T05:07:53.795Z,11.00
2023-05-24T05:10:23.759Z,11.00
2023-05-24T05:12:52.321Z,11.10
2023-05-24T05:15:22.334Z,11.10
2023-05-24T05:17:50.833Z,11.10
2023-05-24T05:20:19.374Z,11.20
2023-05-24T05:22:48.073Z,11.20
2023-05-24T05:25:18.092Z,11.00
2023-05-24T05:27:46.107Z,10.90
2023-05-24T05:30:14.429Z,10.90
2023-05-24T05:32:42.457Z,10.90
2023-05-24T05:35:11.065Z,10.90
2023-05-24T05:37:39.126Z,10.90
2023-05-24T05:40:08.201Z,10.80
2023-05-24T05:42:37.652Z,10.80
2023-05-24T05:45:06.492Z,10.90
2023-05-24T05:47:34.471Z,10.90
2023-05-24T05:50:02.471Z,11.00
2023-05-24T05:52:30.512Z,11.00
2023-05-24T05:54:59.279Z,11.10
2023-05-24T05:57:28.281Z,11.00
2023-05-24T05:59:57.698Z,11.00
2023-05-24T06:02:25.891Z,11.10
2023-05-24T06:04:54.509Z,11.20
2023-05-24T06:07:22.687Z,11.20
2023-05-24T06:09:50.729Z,11.00
2023-05-24T06:12:18.942Z,11.10
2023-05-24T06:14:48.248Z,11.00
2023-05-24T06:17:18.570Z,11.00
2023-05-24T06:19:47.710Z,11.00
2023-05-24T06:22:15.855Z,11.10
2023-05-24T06:24:45.326Z,11.30
2023-05-24T06:27:13.722Z,11.30
2023-05-24T06:29:41.802Z,11.40
2023-05-24T06:32:10.004Z,11.40
2023-05-24T06:34:39.460Z,11.50
2023-05-24T06:37:10.278Z,11.20
2023-05-24T06:39:38.417Z,11.40
2023-05-24T06:42:06.703Z,11.40
2023-05-24T06:44:34.684Z,11.30
2023-05-24T06:47:03.133Z,11.60
2023-05-24T06:49:31.317Z,11.80
2023-05-24T06:52:00.810Z,12.10
2023-05-24T06:54:28.808Z,12.10
2023-05-24T06:56:56.920Z,12.20
2023-05-24T06:59:24.956Z,12.20
2023-05-24T07:01:58.430Z,12.20
2023-05-24T07:04:28.455Z,12.10
2023-05-24T07:06:59.030Z,12.40
2023-05-24T07:09:29.654Z,12.40
2023-05-24T07:11:57.975Z,12.60
2023-05-24T07:14:27.440Z,12.70
2023-05-24T07:16:57.576Z,12.50
2023-05-24T07:19:29.235Z,12.50
2023-05-24T07:21:57.533Z,12.30
2023-05-24T07:24:26.378Z,12.10
2023-05-24T07:26:56.746Z,12.00
2023-05-24T07:29:24.972Z,12.00
2023-05-24T07:31:53.020Z,11.90
2023-05-24T07:34:22.509Z,12.00
2023-05-24T07:36:50.546Z,12.00
2023-05-24T07:39:19.007Z,12.00
2023-05-24T07:41:48.281Z,12.10
2023-05-24T07:44:18.413Z,12.30
2023-05-24T07:46:46.545Z,12.30
2023-05-24T07:49:14.796Z,12.60
2023-05-24T07:51:42.863Z,12.60
2023-05-24T07:54:10.983Z,12.40
2023-05-24T07:56:39.111Z,12.30
2023-05-24T07:59:08.125Z,12.00
2023-05-24T08:01:38.037Z,12.30
2023-05-24T08:04:06.261Z,12.40
2023-05-24T08:06:35.044Z,12.50
2023-05-24T08:09:04.061Z,12.30
2023-05-24T08:11:32.420Z,12.20
2023-05-24T08:14:00.539Z,12.00
2023-05-24T08:16:28.594Z,12.00
2023-05-24T08:18:57.981Z,12.10
2023-05-24T08:21:26.239Z,11.80
2023-05-24T08:23:54.344Z,11.70
2023-05-24T08:26:22.389Z,11.40
2023-05-24T08:28:50.427Z,11.40
2023-05-24T08:31:18.556Z,11.40
2023-05-24T08:33:50.371Z,11.50
2023-05-24T08:36:20.214Z,11.60
2023-05-24T08:38:48.242Z,11.70
2023-05-24T08:41:16.323Z,11.50
2023-05-24T08:43:44.772Z,11.60
2023-05-24T08:46:15.305Z,11.70
2023-05-24T08:48:47.212Z,11.50
2023-05-24T08:51:16.671Z,11.30
2023-05-24T08:53:50.113Z,11.30
2023-05-24T08:56:19.118Z,11.20
2023-05-24T08:58:47.656Z,11.40
2023-05-24T09:01:17.793Z,11.70
2023-05-24T09:03:48.471Z,12.10
2023-05-24T09:06:18.648Z,12.50
2023-05-24T09:08:52.343Z,12.70
2023-05-24T09:11:21.011Z,12.80
2023-05-24T09:13:49.694Z,13.00
2023-05-24T09:16:17.984Z,13.10
2023-05-24T09:18:46.113Z,12.90
2023-05-24T09:21:14.819Z,12.80
2023-05-24T09:23:43.300Z,12.70
2023-05-24T09:26:13.210Z,12.50
2023-05-24T09:28:42.472Z,12.80
2023-05-24T09:31:10.628Z,13.20
2023-05-24T09:33:40.584Z,13.10
2023-05-24T09:36:09.393Z,13.60
2023-05-24T09:38:37.494Z,13.70
2023-05-24T09:41:11.092Z,13.80
2023-05-24T09:43:50.433Z,13.80
2023-05-24T09:46:19.901Z,13.90
2023-05-24T09:48:58.546Z,14.00
2023-05-24T09:51:27.748Z,13.90
2023-05-24T09:53:58.515Z,13.50
2023-05-24T09:56:27.562Z,13.50
2023-05-24T09:58:58.026Z,13.70
2023-05-24T10:01:27.039Z,13.90
2023-05-24T10:03:55.879Z,13.40
2023-05-24T10:06:25.009Z,13.30
2023-05-24T10:08:54.394Z,13.80
2023-05-24T10:11:24.134Z,14.00
2023-05-24T10:13:52.149Z,13.90
2023-05-24T10:16:21.679Z,13.70
2023-05-24T10:18:50.832Z,13.50
2023-05-24T10:21:21.142Z,13.20
2023-05-24T10:23:53.632Z,12.80
2023-05-24T10:26:26.493Z,13.10
2023-05-24T10:29:01.170Z,13.20
2023-05-24T10:31:34.393Z,13.00
2023-05-24T10:34:08.415Z,13.00
2023-05-24T10:36:37.376Z,12.80
2023-05-24T10:39:05.977Z,12.90
2023-05-24T10:41:41.782Z,13.00
2023-05-24T10:44:13.202Z,13.00
2023-05-24T10:47:11.047Z,12.90
2023-05-24T10:49:40.150Z,13.00
2023-05-24T10:52:12.523Z,13.00
2023-05-24T10:54:49.543Z,13.00
2023-05-24T10:57:29.012Z,13.00
2023-05-24T10:59:58.428Z,12.80
2023-05-24T11:02:36.587Z,12.90
2023-05-24T11:05:07.424Z,12.80
2023-05-24T11:07:42.955Z,12.70
2023-05-24T11:10:15.186Z,12.50
2023-05-24T11:12:44.994Z,12.40
2023-05-24T11:15:13.366Z,12.40
2023-05-24T11:18:16.166Z,12.40
2023-05-24T11:20:45.875Z,12.40
2023-05-24T11:23:16.224Z,12.60
2023-05-24T11:25:44.572Z,12.50
2023-05-24T11:28:13.730Z,12.40
2023-05-24T11:30:42.186Z,12.30
2023-05-24T11:33:20.029Z,12.40
2023-05-24T11:35:49.003Z,12.60
2023-05-24T11:38:17.840Z,12.70
2023-05-24T11:40:47.343Z,12.60
2023-05-24T11:43:16.907Z,12.70
2023-05-24T11:45:46.124Z,12.90
2023-05-24T11:48:14.317Z,12.80
2023-05-24T11:50:49.804Z,12.80
2023-05-24T11:53:20.912Z,12.70
2023-05-24T11:55:49.076Z,12.80
2023-05-24T11:58:23.721Z,12.60
2023-05-24T12:00:52.708Z,12.70
2023-05-24T12:03:21.882Z,12.80
2023-05-24T12:05:52.773Z,12.60
2023-05-24T12:08:21.319Z,12.70
2023-05-24T12:10:51.691Z,12.90
2023-05-24T12:13:23.456Z,13.00
2023-05-24T12:15:55.003Z,13.10
2023-05-24T12:18:26.035Z,13.10
2023-05-24T12:20:56.045Z,13.20
2023-05-24T12:23:27.872Z,13.20
2023-05-24T12:25:59.925Z,13.20
2023-05-24T12:28:28.609Z,13.40
2023-05-24T12:30:57.140Z,13.70
2023-05-24T12:33:25.988Z,13.60
2023-05-24T12:35:56.336Z,13.50
2023-05-24T12:38:26.048Z,13.80
2023-05-24T12:41:11.369Z,14.00
2023-05-24T12:43:41.595Z,13.90
2023-05-24T12:46:09.611Z,14.10
2023-05-24T12:48:37.640Z,13.90
2023-05-24T12:51:08.463Z,14.10
2023-05-24T12:53:36.664Z,14.00
2023-05-24T12:56:04.791Z,14.10
2023-05-24T12:58:32.804Z,14.10
2023-05-24T13:01:00.788Z,13.90
2023-05-24T13:03:28.791Z,13.90
2023-05-24T13:05:56.767Z,13.70
2023-05-24T13:08:28.632Z,13.80
2023-05-24T13:10:56.946Z,13.90
2023-05-24T13:13:25.363Z,14.20
2023-05-24T13:15:53.544Z,14.30
2023-05-24T13:18:21.669Z,14.40
2023-05-24T13:20:50.981Z,14.80
2023-05-24T13:23:19.310Z,15.00
2023-05-24T13:25:49.805Z,14.70
2023-05-24T13:28:17.839Z,14.60
2023-05-24T13:30:46.110Z,14.50
2023-05-24T13:33:14.507Z,14.60
2023-05-24T13:35:42.937Z,14.70
2023-05-24T13:38:11.174Z,14.90
2023-05-24T13:40:41.524Z,15.10
2023-05-24T13:43:11.283Z,15.30
2023-05-24T13:45:39.393Z,15.40
2023-05-24T13:48:07.481Z,15.50
2023-05-24T13:50:36.473Z,15.50
2023-05-24T13:53:05.257Z,15.60
2023-05-24T13:55:35.478Z,15.50
2023-05-24T13:58:04.952Z,14.90
2023-05-24T14:00:35.986Z,14.60
2023-05-24T14:03:05.987Z,14.90
2023-05-24T14:05:34.145Z,15.10
2023-05-24T14:08:06.364Z,15.00
2023-05-24T14:10:36.736Z,15.00
2023-05-24T14:15:40.880Z,15.10
2023-05-24T14:18:09.193Z,15.30
2023-05-24T14:20:38.258Z,15.40
2023-05-24T14:23:07.735Z,15.70
2023-05-24T14:25:35.795Z,16.00
2023-05-24T14:28:04.415Z,15.90
2023-05-24T14:30:32.880Z,16.10
2023-05-24T14:33:02.477Z,16.00
2023-05-24T14:35:30.663Z,16.00
2023-05-24T14:37:58.648Z,15.70
2023-05-24T14:40:26.699Z,15.50
2023-05-24T14:42:55.370Z,15.20
2023-05-24T14:45:23.345Z,15.00
2023-05-24T14:47:51.358Z,14.90
2023-05-24T14:50:21.498Z,15.00
2023-05-24T14:52:49.600Z,15.00
2023-05-24T14:55:17.702Z,15.30
2023-05-24T14:57:45.817Z,15.20
2023-05-24T15:00:15.232Z,15.30
2023-05-24T15:02:43.315Z,15.00
2023-05-24T15:05:11.475Z,15.10
2023-05-24T15:07:40.826Z,15.30
2023-05-24T15:10:09.560Z,15.40
2023-05-24T15:12:37.756Z,15.40
2023-05-24T15:15:06.920Z,15.30
2023-05-24T15:17:35.065Z,15.00
2023-05-24T15:20:03.191Z,15.00
2023-05-24T15:22:31.167Z,15.20
2023-05-24T15:25:00.541Z,15.30
2023-05-24T15:27:28.738Z,15.10
2023-05-24T15:29:59.038Z,15.20
2023-05-24T15:32:27.092Z,15.10
2023-05-24T15:34:55.161Z,15.40
2023-05-24T15:37:24.699Z,15.60
2023-05-24T15:39:53.759Z,15.50
2023-05-24T15:42:24.715Z,15.70
2023-05-24T15:44:53.102Z,15.90
2023-05-24T15:47:22.583Z,16.00
2023-05-24T15:49:50.734Z,16.00
2023-05-24T15:52:18.978Z,16.10
2023-05-24T15:54:47.208Z,15.80
2023-05-24T15:57:15.641Z,15.50
2023-05-24T15:59:44.926Z,15.40
2023-05-24T16:02:13.056Z,15.10
2023-05-24T16:04:41.153Z,15.30
2023-05-24T16:07:09.158Z,15.50
2023-05-24T16:09:37.323Z,15.70
2023-05-24T16:12:07.270Z,15.60
2023-05-24T16:14:35.345Z,15.30
2023-05-24T16:17:08.204Z,15.40
2023-05-24T16:19:36.434Z,15.30
2023-05-24T16:22:04.528Z,15.10
2023-05-24T16:24:32.559Z,14.80
2023-05-24T16:27:01.657Z,14.80
2023-05-24T16:29:30.250Z,14.90
2023-05-24T16:31:58.498Z,15.10
2023-05-24T16:34:28.043Z,15.10
2023-05-24T16:36:57.400Z,15.30
2023-05-24T16:39:26.519Z,15.40
2023-05-24T16:41:54.563Z,15.40
2023-05-24T16:44:22.528Z,15.40
2023-05-24T16:46:50.829Z,15.50
2023-05-24T16:49:18.932Z,15.50
2023-05-24T16:51:48.306Z,15.50
2023-05-24T16:54:16.641Z,15.40
2023-05-24T16:56:46.099Z,15.40
2023-05-24T16:59:14.098Z,15.40
2023-05-24T17:01:42.163Z,15.40
2023-05-24T17:04:10.254Z,15.20
2023-05-24T17:06:38.357Z,15.10
2023-05-24T17:09:07.774Z,15.20
2023-05-24T17:11:35.788Z,15.10
2023-05-24T17:14:04.238Z,15.00
2023-05-24T17:16:32.505Z,15.00
2023-05-24T17:19:00.570Z,14.90
2023-05-24T17:21:29.772Z,14.90
2023-05-24T17:23:57.928Z,14.80
2023-05-24T17:26:27.858Z,14.90
2023-05-24T17:28:56.344Z,14.90
2023-05-24T17:31:24.351Z,14.80
2023-05-24T17:33:52.431Z,14.70
2023-05-24T17:36:20.677Z,14.90
2023-05-24T17:38:48.701Z,14.90
2023-05-24T17:41:17.021Z,15.00
2023-05-24T17:43:46.556Z,15.10
2023-05-24T17:46:14.719Z,15.50
2023-05-24T17:48:43.522Z,15.60
2023-05-24T17:51:12.860Z,15.60
2023-05-24T17:53:43.517Z,15.40
2023-05-24T17:56:11.632Z,15.50
2023-05-24T17:58:40.029Z,15.40
2023-05-24T18:01:11.620Z,15.30
2023-05-24T18:03:41.374Z,15.30
2023-05-24T18:06:10.303Z,15.60
2023-05-24T18:08:43.231Z,15.90
2023-05-24T18:11:13.119Z,15.90
2023-05-24T18:13:42.549Z,15.40
2023-05-24T18:16:13.409Z,15.50
2023-05-24T18:18:43.706Z,15.30
2023-05-24T18:21:13.101Z,14.90
2023-05-24T18:23:41.202Z,14.70
2023-05-24T18:26:10.736Z,14.20
2023-05-24T18:28:41.782Z,13.80
2023-05-24T18:31:11.930Z,13.50
2023-05-24T18:33:40.001Z,13.40
2023-05-24T18:36:08.509Z,13.10
2023-05-24T18:38:37.185Z,12.90
2023-05-24T18:41:09.563Z,12.70
2023-05-24T18:43:39.171Z,12.60
2023-05-24T18:46:07.308Z,12.40
2023-05-24T18:48:36.831Z,12.30
2023-05-24T18:51:04.952Z,12.10
2023-05-24T18:53:33.030Z,12.00
2023-05-24T18:56:01.146Z,11.90
2023-05-24T18:58:29.278Z,11.80
2023-05-24T19:00:57.324Z,11.70
2023-05-24T19:03:26.057Z,11.60
2023-05-24T19:05:55.632Z,11.50
2023-05-24T19:08:24.722Z,11.40
2023-05-24T19:10:52.856Z,11.40
2023-05-24T19:13:20.899Z,11.30
2023-05-24T19:15:49.021Z,11.30
2023-05-24T19:18:17.156Z,11.20
2023-05-24T19:20:45.343Z,11.20
2023-05-24T19:23:15.066Z,11.20
2023-05-24T19:25:44.139Z,11.20
2023-05-24T19:28:12.616Z,11.10
2023-05-24T19:30:40.755Z,11.10
2023-05-24T19:33:08.867Z,11.10
2023-05-24T19:35:37.547Z,11.00
2023-05-24T19:38:05.670Z,11.00
2023-05-24T19:40:35.124Z,11.00
2023-05-24T19:43:03.290Z,11.00
2023-05-24T19:45:31.337Z,11.00
2023-05-24T19:47:59.543Z,11.00
2023-05-24T19:50:30.534Z,11.00
2023-05-24T19:52:59.328Z,10.90
2023-05-24T19:55:27.567Z,10.90
2023-05-24T19:57:57.150Z,10.90
2023-05-24T20:00:25.444Z,10.90
2023-05-24T20:02:53.770Z,10.90
2023-05-24T20:05:22.413Z,10.80
2023-05-24T20:07:50.920Z,10.80
2023-05-24T20:10:19.202Z,10.70
2023-05-24T20:12:47.291Z,10.70
2023-05-24T20:15:18.376Z,10.60
2023-05-24T20:17:46.667Z,10.60
2023-05-24T20:20:14.986Z,10.60
2023-05-24T20:22:43.158Z,10.60
2023-05-24T20:25:11.377Z,10.70
2023-05-24T20:27:41.936Z,10.70
2023-05-24T20:30:10.859Z,10.80
2023-05-24T20:32:40.276Z,10.80
2023-05-24T20:35:09.647Z,10.90
2023-05-24T20:37:37.738Z,10.90
2023-05-24T20:40:07.439Z,10.90
2023-05-24T20:42:35.685Z,10.90
2023-05-24T20:45:04.102Z,10.90
2023-05-24T20:47:32.285Z,10.90
2023-05-24T20:50:01.846Z,10.80
2023-05-24T20:52:29.874Z,10.80
2023-05-24T20:54:57.859Z,10.80
2023-05-24T20:57:25.911Z,10.90
2023-05-24T20:59:54.088Z,10.90
2023-05-24T21:02:22.302Z,10.90
2023-05-24T21:04:50.590Z,10.90
2023-05-24T21:07:20.087Z,10.90
2023-05-24T21:09:48.227Z,10.90
2023-05-24T21:12:16.464Z,10.90
2023-05-24T21:14:45.034Z,10.90
2023-05-24T21:17:13.667Z,10.90
2023-05-24T21:19:41.746Z,10.90
2023-05-24T21:22:09.851Z,10.90
2023-05-24T21:24:39.186Z,10.90
2023-05-24T21:27:07.891Z,10.90
2023-05-24T21:29:37.877Z,10.80
2023-05-24T21:32:06.339Z,10.80
2023-05-24T21:34:35.710Z,10.80
2023-05-24T21:37:05.040Z,10.80
2023-05-24T21:39:33.801Z,10.80
2023-05-24T21:42:03.383Z,10.70
2023-05-24T21:44:31.513Z,10.70
2023-05-24T21:46:59.621Z,10.70
2023-05-24T21:49:28.358Z,10.70
2023-05-24T21:51:56.351Z,10.70
2023-05-24T21:54:24.382Z,10.60
2023-05-24T21:56:52.439Z,10.60
2023-05-24T21:59:22.332Z,10.60
2023-05-24T22:01:51.253Z,10.50
2023-05-24T22:04:19.394Z,10.50
2023-05-24T22:06:47.504Z,10.50
2023-05-24T22:09:15.790Z,10.50
2023-05-24T22:11:43.913Z,10.40
2023-05-24T22:14:11.955Z,10.40
2023-05-24T22:16:41.499Z,10.40
2023-05-24T22:19:14.382Z,10.40
2023-05-24T22:21:42.981Z,10.40
2023-05-24T22:24:11.175Z,10.40
2023-05-24T22:26:41.599Z,10.30
2023-05-24T22:29:09.730Z,10.30
2023-05-24T22:31:37.812Z,10.30
2023-05-24T22:34:07.517Z,10.20
2023-05-24T22:36:37.939Z,10.20
2023-05-24T22:39:07.201Z,10.10
2023-05-24T22:41:35.232Z,10.00
2023-05-24T22:44:03.278Z,9.90
2023-05-24T22:46:31.290Z,9.90
2023-05-24T22:49:03.105Z,9.90
2023-05-24T22:51:32.668Z,9.80
2023-05-24T22:54:00.640Z,9.70
2023-05-24T22:56:28.711Z,9.60
2023-05-24T22:58:56.735Z,9.60
2023-05-24T23:01:24.920Z,9.50
2023-05-24T23:03:52.989Z,9.50
2023-05-24T23:06:21.148Z,9.50
2023-05-24T23:08:50.584Z,9.50
2023-05-24T23:11:18.567Z,9.50
2023-05-24T23:13:46.553Z,9.40
2023-05-24T23:16:17.895Z,9.50
2023-05-24T23:18:46.343Z,9.50
2023-05-24T23:21:16.657Z,9.50
2023-05-24T23:23:46.167Z,9.60
2023-05-24T23:26:15.553Z,9.60
2023-05-24T23:28:46.454Z,9.60
2023-05-24T23:31:14.655Z,9.60
2023-05-24T23:33:42.689Z,9.60
2023-05-24T23:36:10.976Z,9.60
2023-05-24T23:38:38.980Z,9.60
2023-05-24T23:41:07.010Z,9.50
2023-05-24T23:43:36.326Z,9.50
2023-05-24T23:46:04.321Z,9.50
2023-05-24T23:48:32.314Z,9.40
2023-05-24T23:51:00.460Z,9.40
2023-05-24T23:53:28.473Z,9.40
2023-05-24T23:55:56.543Z,9.40
2023-05-24T23:58:24.929Z,9.40
